Time;durP1;ratioP1;P1;durP2;ratioP2;P2;SDS_P1;SDS_P2;PMS_P1;PMS_P2;Temp;Humidity;BMP_temperature;BMP_pressure;BME280_temperature;BME280_humidity;BME280_pressure;Samples;Min_cycle;Max_cycle;Signal;HPM_P1;HPM_P2
2021/07/21 00:00:43;;;;;;;16.50;10.90;;;15.90;99.90;;;;;;4877059;29;20478;-79
2021/07/21 00:03:10;;;;;;;17.10;12.00;;;15.90;99.90;;;;;;4877775;29;20456;-79
2021/07/21 00:05:38;;;;;;;18.43;11.20;;;16.00;99.90;;;;;;4863177;29;20860;-79
2021/07/21 00:08:06;;;;;;;16.00;12.03;;;16.00;99.90;;;;;;4863667;29;20997;-80
2021/07/21 00:10:34;;;;;;;18.03;12.40;;;15.90;99.90;;;;;;4867347;29;20479;-79
2021/07/21 00:16:12;;;;;;;17.80;12.50;;;15.90;99.90;;;;;;4862111;29;20596;-80
2021/07/21 00:21:13;;;;;;;19.97;13.77;;;15.90;99.90;;;;;;4880377;29;20451;-78
2021/07/21 00:23:40;;;;;;;19.23;13.77;;;15.80;99.90;;;;;;4879186;29;20451;-79
2021/07/21 00:26:07;;;;;;;22.57;16.17;;;15.80;99.90;;;;;;4861108;29;20468;-78
2021/07/21 00:28:41;;;;;;;23.77;15.90;;;15.80;99.90;;;;;;4860317;29;20472;-79
2021/07/21 00:31:10;;;;;;;23.07;15.43;;;15.80;99.90;;;;;;4860081;29;20459;-78
2021/07/21 00:33:38;;;;;;;24.70;15.33;;;15.70;99.90;;;;;;4859079;29;20468;-79
2021/07/21 00:36:05;;;;;;;20.60;14.37;;;15.70;99.90;;;;;;4872151;29;20484;-78
2021/07/21 00:38:32;;;;;;;19.93;14.80;;;15.70;99.90;;;;;;4860119;29;20432;-79
2021/07/21 00:40:59;;;;;;;24.73;16.03;;;15.60;99.90;;;;;;4859737;29;20555;-80
2021/07/21 00:43:27;;;;;;;24.93;17.47;;;15.60;99.90;;;;;;4874467;29;20840;-79
2021/07/21 00:45:55;;;;;;;23.57;15.70;;;15.60;99.90;;;;;;4859740;29;20480;-79
2021/07/21 00:48:24;;;;;;;21.47;15.27;;;15.60;99.90;;;;;;4859676;29;20511;-81
2021/07/21 00:50:55;;;;;;;23.33;15.63;;;15.60;99.90;;;;;;4858599;29;20603;-81
2021/07/21 00:53:26;;;;;;;22.33;15.50;;;15.60;99.90;;;;;;4860296;29;20927;-81
2021/07/21 00:55:56;;;;;;;25.00;16.40;;;15.50;99.90;;;;;;4858949;29;20912;-81
2021/07/21 00:58:25;;;;;;;25.63;16.90;;;15.40;99.90;;;;;;4874380;29;20440;-81
2021/07/21 01:00:57;;;;;;;23.37;16.40;;;15.40;99.90;;;;;;4858305;29;21066;-81
2021/07/21 01:03:24;;;;;;;24.17;17.47;;;15.40;99.90;;;;;;4860143;29;21001;-81
2021/07/21 01:05:51;;;;;;;25.37;17.07;;;15.40;99.90;;;;;;4859670;29;20483;-80
2021/07/21 01:08:22;;;;;;;24.60;15.70;;;15.30;99.90;;;;;;4873932;29;20476;-81
2021/07/21 01:11:16;;;;;;;24.63;17.47;;;15.30;99.90;;;;;;4871581;29;20490;-81
2021/07/21 01:13:52;;;;;;;23.60;15.93;;;15.30;99.90;;;;;;4858791;29;20555;-80
2021/07/21 01:16:25;;;;;;;23.90;16.50;;;15.30;99.90;;;;;;4858570;29;20884;-78
2021/07/21 01:19:10;;;;;;;22.53;16.13;;;15.20;99.90;;;;;;4862278;29;20435;-78
2021/07/21 01:22:08;;;;;;;23.27;16.43;;;15.20;99.90;;;;;;4878256;29;20441;-78
2021/07/21 01:25:00;;;;;;;22.40;14.17;;;15.30;99.90;;;;;;4863294;29;20847;-78
2021/07/21 01:27:45;;;;;;;24.93;15.70;;;15.30;99.90;;;;;;4862899;29;20479;-78
2021/07/21 01:30:15;;;;;;;22.33;16.47;;;15.20;99.90;;;;;;4863282;29;20466;-78
2021/07/21 01:33:04;;;;;;;24.77;16.70;;;15.10;99.90;;;;;;4888218;29;20521;-78
2021/07/21 01:35:40;;;;;;;25.27;16.73;;;15.00;99.90;;;;;;4896473;29;20477;-78
2021/07/21 01:38:14;;;;;;;23.23;16.40;;;15.00;99.90;;;;;;4896816;29;20481;-77
2021/07/21 01:40:46;;;;;;;25.73;14.93;;;15.10;99.90;;;;;;4866870;29;20816;-78
2021/07/21 01:43:21;;;;;;;23.80;15.57;;;15.00;99.90;;;;;;4858469;29;20454;-77
2021/07/21 01:45:52;;;;;;;22.60;15.53;;;15.00;99.90;;;;;;4873893;29;20468;-76
2021/07/21 01:48:23;;;;;;;22.80;14.03;;;15.00;99.90;;;;;;4881776;29;20483;-78
2021/07/21 01:50:54;;;;;;;21.53;14.43;;;15.00;99.90;;;;;;4876496;29;20471;-79
2021/07/21 01:53:23;;;;;;;20.47;14.80;;;14.90;99.90;;;;;;4892604;29;20467;-78
2021/07/21 01:55:53;;;;;;;18.30;13.67;;;14.80;99.90;;;;;;4872487;29;20518;-77
2021/07/21 01:58:22;;;;;;;18.00;14.50;;;14.80;99.90;;;;;;4859732;29;20437;-78
2021/07/21 02:01:13;;;;;;;17.30;13.33;;;14.70;99.90;;;;;;4858274;29;20489;-78
2021/07/21 02:03:44;;;;;;;17.57;12.90;;;14.80;99.90;;;;;;4873246;29;21020;-78
2021/07/21 02:06:21;;;;;;;19.07;13.17;;;14.70;99.90;;;;;;4858855;29;20489;-78
2021/07/21 02:08:55;;;;;;;17.50;13.63;;;14.70;99.90;;;;;;4870972;29;20560;-78
2021/07/21 02:11:26;;;;;;;20.27;11.73;;;14.70;99.90;;;;;;4846939;29;20457;-78
2021/07/21 02:14:00;;;;;;;20.57;12.60;;;14.60;99.90;;;;;;4861088;29;20472;-79
2021/07/21 02:16:35;;;;;;;20.43;12.10;;;14.60;99.90;;;;;;4861934;29;20507;-79
2021/07/21 02:19:06;;;;;;;18.20;13.07;;;14.60;99.90;;;;;;4863687;29;20463;-78
2021/07/21 02:21:45;;;;;;;17.33;13.00;;;14.60;99.90;;;;;;4878427;29;20940;-79
2021/07/21 02:24:14;;;;;;;17.83;12.70;;;14.70;99.90;;;;;;4877536;29;20850;-79
2021/07/21 02:27:03;;;;;;;18.50;12.20;;;14.50;99.90;;;;;;4863830;29;20501;-79
2021/07/21 02:29:30;;;;;;;19.43;14.20;;;14.50;99.90;;;;;;4863162;29;20482;-78
2021/07/21 02:32:07;;;;;;;18.60;12.70;;;14.50;99.90;;;;;;4863705;29;20486;-78
2021/07/21 02:34:36;;;;;;;18.80;12.80;;;14.40;99.90;;;;;;4872535;29;20505;-78
2021/07/21 02:37:07;;;;;;;19.17;12.33;;;14.30;99.90;;;;;;4880074;29;20447;-78
2021/07/21 02:39:44;;;;;;;18.80;12.03;;;14.30;99.90;;;;;;4875801;29;20480;-79
2021/07/21 02:42:12;;;;;;;19.33;12.83;;;14.30;99.90;;;;;;4861673;29;20449;-79
2021/07/21 02:44:44;;;;;;;17.33;12.40;;;14.30;99.90;;;;;;4861130;29;20891;-78
2021/07/21 02:47:11;;;;;;;15.80;10.90;;;14.40;99.90;;;;;;4862455;29;20430;-78
2021/07/21 02:49:40;;;;;;;20.40;12.40;;;14.40;99.90;;;;;;4872661;29;20980;-77
2021/07/21 02:52:38;;;;;;;16.50;12.17;;;14.30;99.90;;;;;;4862377;29;20475;-78
2021/07/21 02:55:22;;;;;;;18.07;12.80;;;14.30;99.90;;;;;;4867427;29;20478;-77
2021/07/21 02:58:18;;;;;;;17.70;11.17;;;14.40;99.90;;;;;;4861208;29;20536;-78
2021/07/21 03:00:57;;;;;;;16.80;12.20;;;14.40;99.90;;;;;;4863197;29;20473;-77
2021/07/21 03:03:31;;;;;;;16.70;11.83;;;14.30;99.90;;;;;;4872983;29;20480;-78
2021/07/21 03:06:04;;;;;;;19.10;12.83;;;14.30;99.90;;;;;;4882645;29;20467;-79
2021/07/21 03:08:44;;;;;;;15.13;10.70;;;14.20;99.90;;;;;;4883327;29;20507;-79
2021/07/21 03:11:31;;;;;;;17.40;11.13;;;14.20;99.90;;;;;;4864203;29;20468;-79
2021/07/21 03:14:00;;;;;;;15.83;10.07;;;14.40;99.90;;;;;;4864093;29;20479;-79
2021/07/21 03:16:45;;;;;;;16.40;11.17;;;14.30;99.90;;;;;;4866001;29;20771;-78
2021/07/21 03:19:24;;;;;;;13.90;11.80;;;14.20;99.90;;;;;;4863978;29;20556;-79
2021/07/21 03:21:56;;;;;;;18.27;10.80;;;14.00;99.90;;;;;;4863840;29;20430;-78
2021/07/21 03:24:26;;;;;;;14.67;10.80;;;13.90;99.90;;;;;;4861399;29;20494;-79
2021/07/21 03:26:59;;;;;;;16.50;10.40;;;14.10;99.90;;;;;;4863650;29;20444;-79
2021/07/21 03:29:52;;;;;;;19.37;12.30;;;14.00;99.90;;;;;;4891293;29;20473;-79
2021/07/21 03:32:28;;;;;;;20.23;12.23;;;14.00;99.90;;;;;;4867354;29;20453;-79
2021/07/21 03:34:59;;;;;;;14.90;10.40;;;13.90;99.90;;;;;;4863421;29;20476;-79
2021/07/21 03:37:28;;;;;;;17.07;11.40;;;13.80;99.90;;;;;;4878524;29;20873;-79
2021/07/21 03:40:04;;;;;;;20.13;11.30;;;13.80;99.90;;;;;;4872753;29;20481;-79
2021/07/21 03:42:46;;;;;;;17.93;11.60;;;13.90;99.90;;;;;;4863324;29;20429;-79
2021/07/21 03:45:25;;;;;;;15.40;11.13;;;13.90;99.90;;;;;;4862118;29;20907;-79
2021/07/21 03:47:55;;;;;;;20.53;13.47;;;13.80;99.90;;;;;;4865031;29;20820;-78
2021/07/21 03:50:29;;;;;;;20.53;12.70;;;13.80;99.90;;;;;;4877186;29;20467;-79
2021/07/21 03:52:59;;;;;;;22.97;12.00;;;13.80;99.90;;;;;;4877270;29;20433;-79
2021/07/21 03:55:39;;;;;;;19.30;12.70;;;13.80;99.90;;;;;;4873603;29;20479;-79
2021/07/21 03:58:18;;;;;;;19.53;11.77;;;13.80;99.90;;;;;;4880375;29;20500;-78
2021/07/21 04:00:58;;;;;;;17.13;12.30;;;13.80;99.90;;;;;;4872782;29;20494;-77
2021/07/21 04:03:43;;;;;;;18.63;11.93;;;13.80;99.90;;;;;;4874583;29;20472;-78
2021/07/21 04:06:16;;;;;;;16.23;10.63;;;13.90;99.90;;;;;;4875402;29;20461;-79
2021/07/21 04:09:00;;;;;;;17.00;11.87;;;13.90;99.90;;;;;;4859315;29;20813;-78
2021/07/21 04:11:31;;;;;;;20.33;13.33;;;13.80;99.90;;;;;;4859579;29;20446;-78
2021/07/21 04:14:03;;;;;;;18.00;13.50;;;13.80;99.90;;;;;;4859270;29;20466;-78
2021/07/21 04:17:10;;;;;;;18.07;12.30;;;13.90;99.90;;;;;;4874879;29;20436;-79
2021/07/21 04:19:42;;;;;;;19.60;13.80;;;13.80;99.90;;;;;;4872296;29;20975;-78
2021/07/21 04:22:22;;;;;;;20.60;13.97;;;13.80;99.90;;;;;;4875138;29;20882;-78
2021/07/21 04:24:53;;;;;;;19.63;13.17;;;13.70;99.90;;;;;;4874239;29;20480;-78
2021/07/21 04:27:24;;;;;;;19.83;12.73;;;13.90;99.90;;;;;;4874923;29;20429;-79
2021/07/21 04:30:07;;;;;;;16.17;12.80;;;13.90;99.90;;;;;;4858035;29;20471;-78
2021/07/21 04:32:41;;;;;;;15.67;11.43;;;13.90;99.90;;;;;;4859352;29;20436;-79
2021/07/21 04:35:12;;;;;;;18.47;11.50;;;13.90;99.90;;;;;;4873633;29;20477;-79
2021/07/21 04:37:47;;;;;;;16.07;12.70;;;13.90;99.90;;;;;;4860179;29;20440;-79
2021/07/21 04:40:18;;;;;;;16.67;10.97;;;14.00;99.90;;;;;;4876376;29;20468;-78
2021/07/21 04:43:12;;;;;;;15.27;11.50;;;13.90;99.90;;;;;;4878700;29;20995;-79
2021/07/21 04:45:51;;;;;;;17.80;11.83;;;14.00;99.90;;;;;;4878609;29;20471;-79
2021/07/21 04:48:23;;;;;;;20.63;12.40;;;14.10;99.90;;;;;;4871905;29;20505;-79
2021/07/21 04:51:02;;;;;;;20.43;11.87;;;14.00;99.90;;;;;;4862676;29;20874;-79
2021/07/21 04:53:33;;;;;;;17.87;12.93;;;14.10;99.90;;;;;;4863649;29;20544;-79
2021/07/21 04:56:03;;;;;;;15.03;11.53;;;14.20;99.90;;;;;;4870898;29;20886;-79
2021/07/21 04:58:34;;;;;;;17.10;10.90;;;14.20;99.90;;;;;;4882354;29;20452;-79
2021/07/21 05:01:14;;;;;;;16.27;11.03;;;14.30;99.90;;;;;;4866480;29;20465;-79
2021/07/21 05:03:46;;;;;;;21.93;12.90;;;14.40;99.90;;;;;;4878134;29;20475;-79
2021/07/21 05:06:32;;;;;;;18.10;10.57;;;14.40;99.90;;;;;;4877238;29;20458;-79
2021/07/21 05:09:03;;;;;;;20.83;11.60;;;14.50;99.90;;;;;;4885318;29;20477;-79
2021/07/21 05:11:41;;;;;;;14.93;12.10;;;14.60;99.90;;;;;;4876945;29;20533;-78
2021/07/21 05:14:08;;;;;;;16.93;11.40;;;14.60;99.90;;;;;;4873754;29;20475;-79
2021/07/21 05:17:07;;;;;;;18.20;12.50;;;14.60;99.90;;;;;;4859781;29;20450;-79
2021/07/21 05:19:35;;;;;;;14.90;11.10;;;14.70;99.90;;;;;;4858642;29;20484;-78
2021/07/21 05:22:06;;;;;;;15.80;11.70;;;14.70;99.90;;;;;;4843956;29;20821;-79
2021/07/21 05:24:37;;;;;;;15.57;12.57;;;14.80;99.90;;;;;;4857710;29;20563;-79
2021/07/21 05:27:07;;;;;;;16.07;11.93;;;15.00;99.90;;;;;;4859481;29;20426;-77
2021/07/21 05:29:43;;;;;;;21.57;13.30;;;15.00;99.90;;;;;;4859377;29;20847;-78
2021/07/21 05:32:18;;;;;;;17.10;13.50;;;15.00;99.90;;;;;;4858296;29;20942;-78
2021/07/21 05:35:07;;;;;;;18.37;12.33;;;15.10;99.90;;;;;;4866219;29;20485;-78
2021/07/21 05:38:01;;;;;;;17.33;13.10;;;15.20;99.90;;;;;;4876812;29;20849;-78
2021/07/21 05:40:31;;;;;;;17.30;13.27;;;15.40;99.90;;;;;;4863878;29;20900;-78
2021/07/21 05:43:02;;;;;;;16.53;12.37;;;15.40;99.90;;;;;;4861804;29;20445;-78
2021/07/21 05:45:46;;;;;;;20.40;14.40;;;15.50;99.90;;;;;;4848622;29;20474;-78
2021/07/21 05:48:17;;;;;;;17.47;13.63;;;15.60;99.90;;;;;;4861803;29;20487;-77
2021/07/21 05:51:05;;;;;;;17.17;13.23;;;15.60;99.90;;;;;;4854198;29;20529;-77
2021/07/21 05:53:32;;;;;;;21.90;14.17;;;15.70;99.90;;;;;;4862931;29;20449;-78
2021/07/21 05:56:01;;;;;;;19.20;13.07;;;15.80;99.90;;;;;;4861136;29;20980;-78
2021/07/21 05:58:43;;;;;;;22.90;14.57;;;15.90;99.90;;;;;;4861618;29;20447;-78
2021/07/21 06:01:13;;;;;;;20.43;14.40;;;15.90;99.90;;;;;;4861554;29;20508;-78
2021/07/21 06:03:42;;;;;;;17.83;13.57;;;16.10;99.90;;;;;;4862302;29;20476;-78
2021/07/21 06:06:28;;;;;;;18.43;13.60;;;16.40;99.90;;;;;;4863014;29;20456;-78
2021/07/21 06:09:06;;;;;;;16.10;12.53;;;16.90;99.90;;;;;;4870766;29;20467;-78
2021/07/21 06:11:52;;;;;;;18.33;12.73;;;17.50;99.90;;;;;;4848944;29;20535;-77
2021/07/21 06:14:19;;;;;;;20.87;12.10;;;17.80;99.90;;;;;;4861014;29;20504;-78
2021/07/21 06:16:59;;;;;;;18.50;12.97;;;18.30;99.90;;;;;;4877108;29;20530;-78
2021/07/21 06:19:33;;;;;;;13.77;11.10;;;18.70;99.90;;;;;;4876231;29;20468;-78
2021/07/21 06:22:07;;;;;;;14.80;12.30;;;18.90;99.90;;;;;;4862042;29;20432;-78
2021/07/21 06:24:49;;;;;;;16.90;12.50;;;19.50;99.90;;;;;;4865518;29;20487;-77
2021/07/21 06:27:34;;;;;;;13.93;12.30;;;19.70;99.90;;;;;;4862573;29;20444;-78
2021/07/21 06:30:09;;;;;;;16.97;12.90;;;19.60;99.90;;;;;;4862503;29;20479;-78
2021/07/21 06:32:46;;;;;;;17.90;12.40;;;19.70;99.90;;;;;;4862683;29;21011;-79
2021/07/21 06:35:17;;;;;;;14.90;11.03;;;19.90;99.90;;;;;;4877341;29;20512;-78
2021/07/21 06:37:45;;;;;;;14.57;12.57;;;20.10;99.90;;;;;;4879060;29;20445;-78
2021/07/21 06:40:14;;;;;;;14.50;11.47;;;19.80;99.90;;;;;;4877656;29;20480;-78
2021/07/21 06:42:41;;;;;;;14.70;10.60;;;19.70;99.90;;;;;;4863589;29;20519;-78
2021/07/21 06:45:10;;;;;;;14.70;10.90;;;19.60;99.90;;;;;;4878064;29;20473;-78
2021/07/21 06:47:49;;;;;;;14.07;10.87;;;19.40;99.90;;;;;;4862516;29;20506;-77
2021/07/21 06:50:26;;;;;;;12.43;10.30;;;19.20;99.90;;;;;;4848684;29;20477;-77
2021/07/21 06:53:01;;;;;;;12.00;9.67;;;19.10;99.90;;;;;;4881786;29;20835;-77
2021/07/21 06:55:49;;;;;;;15.73;10.90;;;19.00;99.90;;;;;;4887298;29;20473;-78
2021/07/21 06:58:22;;;;;;;16.33;10.67;;;19.00;99.90;;;;;;4866424;29;20439;-77
2021/07/21 07:00:54;;;;;;;14.97;9.97;;;19.00;99.90;;;;;;4865798;29;20467;-78
2021/07/21 07:03:39;;;;;;;13.50;10.97;;;19.00;99.90;;;;;;4865021;29;20516;-77
2021/07/21 07:06:27;;;;;;;11.90;9.47;;;19.00;99.90;;;;;;4863399;29;21012;-77
2021/07/21 07:09:26;;;;;;;15.47;9.80;;;19.00;99.90;;;;;;4869025;29;20842;-77
2021/07/21 07:12:20;;;;;;;14.60;9.60;;;19.10;99.90;;;;;;4876771;29;20556;-78
2021/07/21 07:14:47;;;;;;;11.00;9.13;;;19.20;99.90;;;;;;4860698;29;20481;-78
2021/07/21 07:17:16;;;;;;;13.67;10.27;;;19.20;99.90;;;;;;4862601;29;20440;-77
2021/07/21 07:19:45;;;;;;;11.00;8.80;;;19.20;99.90;;;;;;4852714;29;20465;-78
2021/07/21 07:22:19;;;;;;;10.30;8.17;;;19.40;99.90;;;;;;4861364;29;20795;-77
2021/07/21 07:24:49;;;;;;;11.57;8.90;;;19.40;99.90;;;;;;4861103;29;20515;-77
2021/07/21 07:27:16;;;;;;;10.17;8.27;;;19.40;99.90;;;;;;4860547;29;20456;-77
2021/07/21 07:29:53;;;;;;;10.30;7.30;;;19.50;99.90;;;;;;4863603;29;20475;-78
2021/07/21 07:32:20;;;;;;;12.43;8.57;;;19.60;99.30;;;;;;4868341;29;20437;-77
2021/07/21 07:34:48;;;;;;;10.77;7.90;;;19.60;99.90;;;;;;4878992;29;20472;-78
2021/07/21 07:37:15;;;;;;;12.13;8.80;;;19.70;98.90;;;;;;4861456;29;20437;-78
2021/07/21 07:39:42;;;;;;;10.50;7.73;;;19.80;99.60;;;;;;4859593;29;20933;-76
2021/07/21 07:42:09;;;;;;;10.10;7.33;;;19.90;97.70;;;;;;4861490;29;20463;-78
2021/07/21 07:44:41;;;;;;;11.33;8.47;;;20.20;96.80;;;;;;4859657;29;20483;-77
2021/07/21 07:47:13;;;;;;;9.87;8.23;;;20.30;95.80;;;;;;4875199;29;20939;-77
2021/07/21 07:49:53;;;;;;;8.60;7.67;;;20.40;95.00;;;;;;4853764;29;20503;-76
2021/07/21 07:52:32;;;;;;;11.10;7.80;;;20.50;96.10;;;;;;4866188;29;20443;-76
2021/07/21 07:55:01;;;;;;;10.47;8.37;;;20.50;94.20;;;;;;4860143;29;20482;-77
2021/07/21 07:57:29;;;;;;;12.90;8.50;;;20.80;93.60;;;;;;4860609;29;21010;-76
2021/07/21 07:59:58;;;;;;;8.87;7.43;;;20.70;92.40;;;;;;4858987;29;20479;-76
2021/07/21 08:02:27;;;;;;;10.30;6.93;;;20.80;92.50;;;;;;4844529;29;20436;-76
2021/07/21 08:04:56;;;;;;;10.30;7.53;;;20.90;91.80;;;;;;4870255;29;20468;-76
2021/07/21 08:07:35;;;;;;;10.53;7.40;;;21.00;91.10;;;;;;4874088;29;20627;-76
2021/07/21 08:10:12;;;;;;;10.13;7.20;;;21.00;91.50;;;;;;4859746;29;20479;-76
2021/07/21 08:12:49;;;;;;;8.07;6.90;;;21.10;91.10;;;;;;4845294;29;20440;-77
2021/07/21 08:15:23;;;;;;;8.23;6.90;;;21.20;89.20;;;;;;4860249;29;20468;-78
2021/07/21 08:17:53;;;;;;;8.20;7.40;;;21.40;88.70;;;;;;4860071;29;20454;-77
2021/07/21 08:20:23;;;;;;;9.23;7.00;;;21.40;88.90;;;;;;4859888;29;20532;-77
2021/07/21 08:22:53;;;;;;;8.70;6.77;;;21.60;90.80;;;;;;4872038;29;20879;-79
2021/07/21 08:25:24;;;;;;;11.27;6.37;;;21.60;86.90;;;;;;4877430;29;20570;-78
2021/07/21 08:27:55;;;;;;;9.57;6.50;;;21.80;83.20;;;;;;4883592;29;20473;-78
2021/07/21 08:30:23;;;;;;;7.67;6.67;;;22.00;80.30;;;;;;4878453;29;20476;-76
2021/07/21 08:32:52;;;;;;;11.40;6.70;;;21.90;83.60;;;;;;4874520;29;20534;-78
2021/07/21 08:35:22;;;;;;;6.90;6.20;;;22.00;79.00;;;;;;4852725;29;20487;-77
2021/07/21 08:37:51;;;;;;;10.53;6.93;;;21.90;81.50;;;;;;4862258;29;20507;-78
2021/07/21 08:40:22;;;;;;;8.60;7.20;;;22.00;82.40;;;;;;4873052;29;20473;-79
2021/07/21 08:42:52;;;;;;;9.57;6.37;;;22.10;78.50;;;;;;4859088;29;20937;-78
2021/07/21 08:45:20;;;;;;;7.10;6.33;;;22.30;78.10;;;;;;4872877;29;20471;-78
2021/07/21 08:47:57;;;;;;;6.67;5.97;;;22.30;75.90;;;;;;4877148;29;20498;-78
2021/07/21 08:50:27;;;;;;;8.60;6.87;;;22.40;73.30;;;;;;4877135;29;20817;-79
2021/07/21 08:53:00;;;;;;;7.03;6.33;;;22.40;74.20;;;;;;4878894;29;20528;-78
2021/07/21 08:55:27;;;;;;;8.40;6.40;;;22.60;73.50;;;;;;4880785;29;20547;-78
2021/07/21 08:57:57;;;;;;;7.17;5.60;;;22.60;76.40;;;;;;4858706;29;20493;-78
2021/07/21 09:00:28;;;;;;;7.73;6.43;;;22.70;76.10;;;;;;4863136;29;20833;-78
2021/07/21 09:03:00;;;;;;;7.87;7.13;;;22.60;77.00;;;;;;4874289;29;20432;-78
2021/07/21 09:05:27;;;;;;;9.03;6.77;;;22.60;70.50;;;;;;4859442;29;20466;-78
2021/07/21 09:08:05;;;;;;;8.43;7.03;;;22.70;72.50;;;;;;4859843;29;20939;-78
2021/07/21 09:10:32;;;;;;;7.00;5.97;;;22.80;67.10;;;;;;4858929;29;20577;-77
2021/07/21 09:13:04;;;;;;;7.73;6.93;;;22.80;71.50;;;;;;4874050;29;20791;-78
2021/07/21 09:15:33;;;;;;;8.07;5.67;;;22.90;69.60;;;;;;4859181;29;20475;-78
2021/07/21 09:18:08;;;;;;;8.50;6.60;;;22.80;70.10;;;;;;4859602;29;20441;-78
2021/07/21 09:20:42;;;;;;;7.03;5.23;;;22.90;68.10;;;;;;4871573;29;20565;-77
2021/07/21 09:23:19;;;;;;;8.07;5.50;;;23.00;66.70;;;;;;4877142;29;20790;-78
2021/07/21 09:25:46;;;;;;;7.03;6.30;;;22.90;66.60;;;;;;4872972;29;20979;-78
2021/07/21 09:28:13;;;;;;;7.83;5.60;;;23.10;70.30;;;;;;4868378;29;20533;-78
2021/07/21 09:30:50;;;;;;;7.63;5.90;;;23.30;70.20;;;;;;4876627;29;20482;-78
2021/07/21 09:33:18;;;;;;;6.47;5.67;;;23.40;67.10;;;;;;4873305;29;21079;-78
2021/07/21 09:35:52;;;;;;;10.20;6.33;;;23.50;65.00;;;;;;4858390;29;20476;-78
2021/07/21 09:38:30;;;;;;;7.13;6.40;;;23.50;66.70;;;;;;4873486;29;21028;-78
2021/07/21 09:41:04;;;;;;;7.20;4.83;;;23.50;67.30;;;;;;4872431;29;20491;-78
2021/07/21 09:43:39;;;;;;;8.60;5.37;;;23.50;67.30;;;;;;4877979;29;20463;-78
2021/07/21 09:46:14;;;;;;;8.93;5.47;;;23.50;61.80;;;;;;4877764;29;20456;-78
2021/07/21 09:48:49;;;;;;;7.43;5.70;;;23.50;64.90;;;;;;4872783;29;21107;-77
2021/07/21 09:51:45;;;;;;;6.30;5.67;;;23.50;63.70;;;;;;4876529;29;20457;-78
2021/07/21 09:54:17;;;;;;;8.90;6.63;;;23.50;66.30;;;;;;4863328;29;20482;-77
2021/07/21 09:56:50;;;;;;;6.50;5.70;;;23.60;64.50;;;;;;4859444;29;20436;-78
2021/07/21 09:59:20;;;;;;;8.80;7.30;;;23.60;63.00;;;;;;4859097;29;20549;-78
2021/07/21 10:01:50;;;;;;;6.67;6.07;;;23.60;61.00;;;;;;4859150;29;20466;-77
2021/07/21 10:04:40;;;;;;;8.70;5.37;;;23.60;62.70;;;;;;4857686;29;20560;-78
2021/07/21 10:09:52;;;;;;;8.73;6.27;;;23.90;58.70;;;;;;4869704;29;20580;-78
2021/07/21 10:12:21;;;;;;;6.47;5.80;;;23.90;60.30;;;;;;4842698;29;20439;-78
2021/07/21 10:14:57;;;;;;;6.60;5.93;;;24.00;60.80;;;;;;4857437;29;20475;-78
2021/07/21 10:17:33;;;;;;;6.70;5.67;;;24.00;60.30;;;;;;4873083;29;21034;-78
2021/07/21 10:20:02;;;;;;;8.80;6.40;;;24.10;58.30;;;;;;4866350;29;21001;-78
2021/07/21 10:22:32;;;;;;;6.87;5.43;;;24.10;58.30;;;;;;4859086;29;20911;-78
2021/07/21 10:24:59;;;;;;;6.97;5.67;;;24.10;57.80;;;;;;4872331;29;20486;-78
2021/07/21 10:27:30;;;;;;;8.10;5.17;;;24.30;54.10;;;;;;4872561;29;20976;-78
2021/07/21 10:29:59;;;;;;;8.77;5.80;;;24.30;56.60;;;;;;4860507;29;20884;-77
2021/07/21 10:32:38;;;;;;;5.30;4.80;;;24.30;55.20;;;;;;4860836;29;20480;-77
2021/07/21 10:35:09;;;;;;;4.93;4.40;;;24.30;56.90;;;;;;4860201;29;21024;-77
2021/07/21 10:37:36;;;;;;;5.97;4.73;;;24.20;52.50;;;;;;4876397;29;20422;-78
2021/07/21 10:40:06;;;;;;;7.40;6.17;;;24.20;56.20;;;;;;4870618;29;20545;-76
2021/07/21 10:42:36;;;;;;;7.87;5.63;;;24.20;57.60;;;;;;4871928;29;20500;-78
2021/07/21 10:45:13;;;;;;;6.03;5.40;;;24.30;60.50;;;;;;4878962;29;20493;-78
2021/07/21 10:47:57;;;;;;;6.33;5.20;;;24.50;56.70;;;;;;4878808;29;20485;-79
2021/07/21 10:50:50;;;;;;;5.97;5.37;;;24.70;59.20;;;;;;4873237;29;20916;-78
2021/07/21 10:53:29;;;;;;;6.23;5.27;;;24.90;53.80;;;;;;4878757;29;20554;-78
2021/07/21 10:59:24;;;;;;;8.17;5.80;;;24.90;54.70;;;;;;4879129;29;20505;-78
2021/07/21 11:01:52;;;;;;;5.93;5.30;;;24.80;54.30;;;;;;4879125;29;20430;-78
2021/07/21 11:04:44;;;;;;;6.50;5.07;;;24.90;53.80;;;;;;4877191;29;20463;-78
2021/07/21 11:07:20;;;;;;;7.40;5.50;;;25.00;56.00;;;;;;4879086;29;20423;-79
2021/07/21 11:09:51;;;;;;;7.87;5.57;;;25.20;53.10;;;;;;4872213;29;20490;-78
2021/07/21 11:12:33;;;;;;;6.33;5.07;;;25.40;53.80;;;;;;4860342;29;20931;-78
2021/07/21 11:15:00;;;;;;;7.10;6.10;;;25.50;55.70;;;;;;4861994;29;20571;-79
2021/07/21 11:17:27;;;;;;;6.73;5.97;;;25.50;51.70;;;;;;4874950;29;20448;-79
2021/07/21 11:20:01;;;;;;;6.80;5.53;;;25.70;50.80;;;;;;4861022;29;20475;-77
2021/07/21 11:22:31;;;;;;;6.07;5.50;;;25.70;52.50;;;;;;4862066;29;20436;-78
2021/07/21 11:25:07;;;;;;;7.07;6.40;;;25.50;51.70;;;;;;4861132;29;20509;-78
2021/07/21 11:27:41;;;;;;;7.93;7.13;;;25.60;52.10;;;;;;4861316;29;20943;-76
2021/07/21 11:30:47;;;;;;;7.30;6.40;;;25.60;48.90;;;;;;4861053;29;20484;-78
2021/07/21 11:33:44;;;;;;;7.17;6.07;;;25.50;48.90;;;;;;4861338;29;21057;-76
2021/07/21 11:36:13;;;;;;;8.17;7.00;;;25.60;50.90;;;;;;4875138;29;20500;-77
2021/07/21 11:38:47;;;;;;;8.43;6.50;;;25.70;52.80;;;;;;4859770;29;20504;-78
2021/07/21 11:41:47;;;;;;;7.43;6.83;;;25.70;51.60;;;;;;4861154;29;20475;-77
2021/07/21 11:44:27;;;;;;;7.90;7.10;;;25.60;48.00;;;;;;4860508;29;20480;-78
2021/07/21 11:47:00;;;;;;;7.10;5.80;;;25.50;48.10;;;;;;4880623;29;20415;-76
2021/07/21 11:49:32;;;;;;;8.43;6.10;;;25.30;52.60;;;;;;4874525;29;21012;-75
2021/07/21 11:52:04;;;;;;;6.50;5.90;;;25.30;49.00;;;;;;4865420;29;20423;-77
2021/07/21 11:54:40;;;;;;;7.90;6.53;;;25.40;49.80;;;;;;4873351;29;21062;-78
2021/07/21 11:57:09;;;;;;;12.37;6.53;;;25.40;49.90;;;;;;4860636;29;20436;-77
2021/07/21 11:59:39;;;;;;;7.80;7.00;;;25.60;49.90;;;;;;4860372;29;20500;-78
2021/07/21 12:02:12;;;;;;;8.13;7.43;;;25.60;50.50;;;;;;4860768;29;20833;-78
2021/07/21 12:04:47;;;;;;;10.73;7.70;;;25.60;51.30;;;;;;4873486;29;20464;-78
2021/07/21 12:07:23;;;;;;;10.27;7.23;;;25.70;50.80;;;;;;4880278;29;20423;-79
2021/07/21 12:09:52;;;;;;;9.73;8.50;;;25.70;48.50;;;;;;4879355;29;20478;-77
2021/07/21 12:12:23;;;;;;;11.33;8.33;;;25.60;47.50;;;;;;4880179;29;20614;-78
2021/07/21 12:14:56;;;;;;;10.13;8.87;;;25.50;49.60;;;;;;4878345;29;20879;-78
2021/07/21 12:17:25;;;;;;;9.97;8.97;;;25.60;51.50;;;;;;4872900;29;20786;-77
2021/07/21 12:20:34;;;;;;;9.33;8.37;;;25.60;49.70;;;;;;4861168;29;20479;-77
2021/07/21 12:23:03;;;;;;;9.90;8.90;;;25.60;47.40;;;;;;4863253;29;20947;-77
2021/07/21 12:25:31;;;;;;;13.17;10.07;;;25.60;50.00;;;;;;4861495;29;20855;-78
2021/07/21 12:28:10;;;;;;;11.83;10.67;;;25.70;46.70;;;;;;4845483;29;21008;-80
2021/07/21 12:30:40;;;;;;;10.67;9.67;;;25.60;48.40;;;;;;4860100;29;20512;-77
2021/07/21 12:33:12;;;;;;;11.00;9.70;;;25.60;52.20;;;;;;4875132;29;20504;-76
2021/07/21 12:35:40;;;;;;;12.50;9.63;;;25.70;49.70;;;;;;4860092;29;21007;-78
2021/07/21 12:38:11;;;;;;;11.00;9.47;;;25.70;52.20;;;;;;4875090;29;20488;-79
2021/07/21 12:40:38;;;;;;;9.60;8.60;;;25.90;52.90;;;;;;4887135;29;20479;-78
2021/07/21 12:43:08;;;;;;;10.23;9.10;;;25.90;49.70;;;;;;4879343;29;20798;-78
2021/07/21 12:45:35;;;;;;;9.50;8.50;;;25.90;47.50;;;;;;4878785;29;20470;-77
2021/07/21 12:48:05;;;;;;;10.67;9.67;;;25.90;47.40;;;;;;4877302;29;20451;-77
2021/07/21 12:50:35;;;;;;;10.27;9.00;;;25.90;52.40;;;;;;4873055;29;20515;-76
2021/07/21 12:53:15;;;;;;;12.30;10.07;;;26.00;50.00;;;;;;4871846;29;20431;-77
2021/07/21 12:55:44;;;;;;;10.73;9.63;;;26.00;48.60;;;;;;4862472;29;20500;-77
2021/07/21 12:58:14;;;;;;;11.17;10.07;;;26.00;48.20;;;;;;4873869;29;20891;-78
2021/07/21 13:01:00;;;;;;;10.80;9.67;;;26.00;48.70;;;;;;4859379;29;20555;-78
2021/07/21 13:03:30;;;;;;;11.17;9.90;;;25.90;48.60;;;;;;4860412;29;20472;-76
2021/07/21 13:06:05;;;;;;;11.23;9.90;;;26.00;51.10;;;;;;4859012;29;20478;-77
2021/07/21 13:08:35;;;;;;;13.90;10.50;;;26.00;48.60;;;;;;4858859;29;20839;-77
2021/07/21 13:11:15;;;;;;;13.20;9.90;;;26.00;49.40;;;;;;4859585;29;20477;-76
2021/07/21 13:13:51;;;;;;;12.73;9.90;;;25.90;50.30;;;;;;4855697;29;20444;-78
2021/07/21 13:16:24;;;;;;;14.33;11.03;;;26.00;51.30;;;;;;4858534;29;20448;-78
2021/07/21 13:19:16;;;;;;;13.00;10.13;;;26.00;51.00;;;;;;4858734;29;20459;-78
2021/07/21 13:21:45;;;;;;;11.80;10.63;;;26.10;51.50;;;;;;4858362;29;20440;-78